Time;durP1;ratioP1;P1;durP2;ratioP2;P2;SDS_P1;SDS_P2;PMS_P1;PMS_P2;Temp;Humidity;BMP_temperature;BMP_pressure;BME280_temperature;BME280_humidity;BME280_pressure;Samples;Min_cycle;Max_cycle;Signal;HPM_P1;HPM_P2
2021/06/22 00:02:00;;;;;;;5.83;5.20;;;19.60;76.80;;;;;;5053759;28;20572;-49
2021/06/22 00:04:26;;;;;;;6.80;6.20;;;19.50;77.20;;;;;;5058131;28;20470;-49
2021/06/22 00:06:53;;;;;;;9.43;6.63;;;19.50;77.90;;;;;;5050958;28;20462;-48
2021/06/22 00:09:20;;;;;;;6.87;6.27;;;19.50;78.20;;;;;;5053523;28;20463;-49
2021/06/22 00:11:47;;;;;;;6.17;5.57;;;19.40;78.50;;;;;;5054463;28;20639;-48
2021/06/22 00:14:13;;;;;;;6.37;5.73;;;19.30;78.90;;;;;;5052231;28;20489;-49
2021/06/22 00:16:40;;;;;;;7.20;5.40;;;19.30;78.70;;;;;;5053962;28;20454;-49
2021/06/22 00:19:07;;;;;;;6.30;5.70;;;19.20;78.30;;;;;;5054239;28;20483;-49
2021/06/22 00:21:34;;;;;;;6.40;5.87;;;19.20;78.90;;;;;;5056979;28;20449;-48
2021/06/22 00:24:00;;;;;;;6.03;5.53;;;19.20;79.40;;;;;;5052953;28;20802;-48
2021/06/22 00:26:27;;;;;;;5.73;5.10;;;19.10;79.40;;;;;;5073254;28;20859;-48
2021/06/22 00:28:54;;;;;;;6.80;6.10;;;19.00;79.80;;;;;;5058880;28;20458;-48
2021/06/22 00:31:20;;;;;;;6.03;5.03;;;19.00;79.40;;;;;;5058617;28;20462;-48
2021/06/22 00:33:47;;;;;;;6.13;5.63;;;18.90;79.70;;;;;;5058403;28;20480;-49
2021/06/22 00:36:14;;;;;;;6.20;5.60;;;18.90;79.60;;;;;;5058784;28;20962;-48
2021/06/22 00:38:41;;;;;;;5.90;5.33;;;18.80;80.00;;;;;;5060715;28;20463;-49
2021/06/22 00:41:08;;;;;;;8.77;6.20;;;18.80;80.80;;;;;;5056006;28;20469;-48
2021/06/22 00:43:38;;;;;;;5.30;4.80;;;18.80;80.10;;;;;;5057575;28;20470;-49
2021/06/22 00:46:06;;;;;;;7.07;5.30;;;18.80;80.70;;;;;;5058454;28;20492;-48
2021/06/22 00:48:33;;;;;;;6.13;5.60;;;18.80;80.90;;;;;;5058188;28;20538;-48
2021/06/22 00:51:00;;;;;;;6.53;5.83;;;18.80;81.00;;;;;;5058221;28;20466;-49
2021/06/22 00:53:27;;;;;;;6.60;6.00;;;18.80;81.00;;;;;;5053658;28;20515;-49
2021/06/22 00:55:57;;;;;;;6.10;5.60;;;18.80;80.90;;;;;;5058308;28;20467;-48
2021/06/22 00:58:24;;;;;;;7.27;5.90;;;18.80;81.10;;;;;;5071918;28;20465;-48
2021/06/22 01:00:51;;;;;;;5.83;5.13;;;18.80;81.40;;;;;;5071205;28;20473;-48
2021/06/22 01:03:18;;;;;;;6.30;5.37;;;18.80;80.70;;;;;;5087526;28;20457;-49
2021/06/22 01:05:47;;;;;;;8.87;5.37;;;18.80;80.60;;;;;;5054840;28;20480;-48
2021/06/22 01:08:14;;;;;;;6.30;5.70;;;18.80;80.90;;;;;;5058402;28;20467;-48
2021/06/22 01:10:41;;;;;;;6.00;5.43;;;18.80;80.90;;;;;;5057143;28;20465;-48
2021/06/22 01:13:07;;;;;;;5.90;5.40;;;18.80;80.80;;;;;;5057292;28;20449;-48
2021/06/22 01:15:35;;;;;;;5.37;4.87;;;18.80;80.60;;;;;;5055059;28;20486;-49
2021/06/22 01:18:04;;;;;;;5.87;5.37;;;18.80;80.80;;;;;;5054984;28;20501;-48
2021/06/22 01:20:32;;;;;;;6.33;5.73;;;18.80;80.80;;;;;;5057121;28;20466;-48
2021/06/22 01:23:00;;;;;;;6.60;6.00;;;18.80;80.70;;;;;;5055841;28;20814;-49
2021/06/22 01:25:28;;;;;;;7.27;6.20;;;18.80;80.60;;;;;;5057620;28;20873;-48
2021/06/22 01:27:58;;;;;;;5.73;5.20;;;18.80;81.00;;;;;;5054139;28;20470;-49
2021/06/22 01:30:26;;;;;;;6.60;6.00;;;18.80;81.10;;;;;;5062556;28;20458;-48
2021/06/22 01:32:53;;;;;;;6.50;5.90;;;18.80;81.20;;;;;;5072686;28;20450;-48
2021/06/22 01:35:20;;;;;;;6.27;5.67;;;18.80;81.10;;;;;;5059464;28;20462;-49
2021/06/22 01:38:05;;;;;;;5.43;4.93;;;18.70;81.00;;;;;;5060609;28;20550;-48
2021/06/22 01:40:42;;;;;;;6.47;5.87;;;18.70;80.80;;;;;;5057205;28;20446;-48
2021/06/22 01:43:08;;;;;;;6.03;5.10;;;18.70;80.70;;;;;;5057668;28;20796;-48
2021/06/22 01:45:35;;;;;;;5.30;4.80;;;18.70;80.80;;;;;;5058075;28;20990;-48
2021/06/22 01:48:03;;;;;;;5.87;5.10;;;18.70;80.60;;;;;;5056665;28;20461;-49
2021/06/22 01:50:31;;;;;;;5.73;5.10;;;18.60;80.30;;;;;;5053196;28;20467;-48
2021/06/22 01:52:57;;;;;;;5.20;4.80;;;18.60;80.60;;;;;;5059566;28;20453;-48
2021/06/22 01:58:15;;;;;;;5.70;5.10;;;18.60;80.60;;;;;;5051964;28;20493;-48
2021/06/22 02:00:43;;;;;;;5.23;4.80;;;18.50;80.50;;;;;;5052999;28;20468;-49
2021/06/22 02:03:19;;;;;;;6.43;5.80;;;18.50;80.70;;;;;;5055780;28;20492;-48
2021/06/22 02:05:47;;;;;;;5.20;4.80;;;18.50;80.70;;;;;;5051885;28;20975;-48
2021/06/22 02:08:16;;;;;;;5.60;5.10;;;18.50;80.80;;;;;;5057591;28;20454;-48
2021/06/22 02:10:44;;;;;;;5.10;4.60;;;18.40;80.90;;;;;;5058405;28;20460;-48
2021/06/22 02:13:12;;;;;;;6.67;5.97;;;18.50;81.00;;;;;;5054197;28;20443;-48
2021/06/22 02:15:40;;;;;;;4.83;4.40;;;18.40;81.00;;;;;;5054007;28;20837;-48
2021/06/22 02:18:08;;;;;;;5.23;4.73;;;18.40;80.90;;;;;;5054502;28;20488;-48
2021/06/22 02:20:36;;;;;;;4.50;4.10;;;18.40;80.80;;;;;;5057647;28;20519;-48
2021/06/22 02:23:04;;;;;;;4.80;4.40;;;18.40;80.60;;;;;;5055630;28;20504;-48
2021/06/22 02:25:31;;;;;;;4.97;4.57;;;18.40;80.50;;;;;;5057828;28;21020;-49
2021/06/22 02:28:04;;;;;;;6.73;4.67;;;18.40;80.70;;;;;;5055571;28;20457;-48
2021/06/22 02:30:32;;;;;;;4.73;4.33;;;18.40;81.00;;;;;;5084111;28;20600;-48
2021/06/22 02:32:59;;;;;;;4.83;4.23;;;18.40;80.90;;;;;;5056862;28;20449;-48
2021/06/22 02:35:26;;;;;;;4.50;4.10;;;18.40;81.00;;;;;;5058364;28;20828;-48
2021/06/22 02:37:53;;;;;;;4.50;4.10;;;18.40;81.20;;;;;;5055256;28;21020;-48
2021/06/22 02:40:21;;;;;;;6.00;5.00;;;18.40;81.30;;;;;;5052128;28;20467;-48
2021/06/22 02:42:48;;;;;;;4.40;4.00;;;18.40;81.30;;;;;;5054112;28;20462;-48
2021/06/22 02:45:15;;;;;;;5.33;4.83;;;18.40;81.50;;;;;;5071627;28;20868;-48
2021/06/22 02:47:43;;;;;;;6.77;6.07;;;18.40;81.60;;;;;;5053207;28;20818;-48
2021/06/22 02:50:11;;;;;;;5.23;4.40;;;18.40;81.80;;;;;;5058555;28;20450;-46
2021/06/22 02:52:38;;;;;;;5.33;4.00;;;18.40;82.00;;;;;;5052731;28;20458;-46
2021/06/22 02:55:06;;;;;;;4.60;3.80;;;18.40;82.00;;;;;;5086917;28;20459;-46
2021/06/22 02:57:33;;;;;;;3.33;3.03;;;18.40;81.80;;;;;;5055623;28;20461;-47
2021/06/22 02:59:59;;;;;;;2.97;2.63;;;18.40;80.50;;;;;;5057100;28;20451;-46
2021/06/22 03:02:26;;;;;;;2.97;2.70;;;18.40;79.90;;;;;;5053658;28;20454;-47
2021/06/22 03:04:53;;;;;;;3.60;2.37;;;18.40;79.50;;;;;;5053156;28;20458;-47
2021/06/22 03:07:19;;;;;;;2.20;1.80;;;18.40;79.50;;;;;;5069127;28;20848;-46
2021/06/22 03:09:46;;;;;;;5.70;2.80;;;18.40;78.80;;;;;;5057427;28;21198;-46
2021/06/22 03:12:13;;;;;;;1.77;1.63;;;18.40;78.70;;;;;;5055897;28;20449;-46
2021/06/22 03:14:39;;;;;;;2.23;1.90;;;18.30;78.80;;;;;;5055360;28;20497;-47
2021/06/22 03:17:06;;;;;;;1.90;1.50;;;18.30;78.40;;;;;;5054206;28;20462;-47
2021/06/22 03:19:33;;;;;;;2.23;1.90;;;18.20;78.30;;;;;;5055349;28;20488;-47
2021/06/22 03:22:00;;;;;;;2.57;1.80;;;18.20;78.60;;;;;;5071147;28;20458;-46
2021/06/22 03:24:26;;;;;;;1.67;1.57;;;18.20;78.70;;;;;;5058109;28;20462;-46
2021/06/22 03:26:53;;;;;;;1.67;1.57;;;18.10;78.90;;;;;;5056798;28;20494;-47
2021/06/22 03:29:22;;;;;;;2.40;1.93;;;18.10;79.40;;;;;;5051992;28;20469;-46
2021/06/22 03:31:49;;;;;;;2.50;1.70;;;18.10;79.80;;;;;;5057739;28;20453;-46
2021/06/22 03:34:16;;;;;;;2.00;1.90;;;18.10;79.80;;;;;;5057925;28;20852;-46
2021/06/22 03:36:43;;;;;;;2.03;1.87;;;18.10;79.80;;;;;;5056991;28;21136;-46
2021/06/22 03:39:10;;;;;;;4.10;2.13;;;18.10;79.70;;;;;;5059210;28;20788;-47
2021/06/22 03:41:38;;;;;;;2.63;2.10;;;18.10;79.60;;;;;;5053801;28;20454;-46
2021/06/22 03:44:05;;;;;;;1.90;1.70;;;18.10;79.70;;;;;;5058364;28;20820;-46
2021/06/22 03:46:32;;;;;;;2.03;1.30;;;18.10;79.90;;;;;;5055938;28;20955;-47
2021/06/22 03:48:59;;;;;;;2.10;1.57;;;18.10;79.30;;;;;;5054968;28;20450;-46
2021/06/22 03:51:26;;;;;;;1.27;1.17;;;18.10;78.80;;;;;;5057329;28;20455;-47
2021/06/22 03:53:53;;;;;;;1.40;1.30;;;18.10;78.80;;;;;;5053264;28;20829;-47
2021/06/22 03:56:19;;;;;;;2.60;1.33;;;18.00;79.00;;;;;;5055317;28;20464;-46
2021/06/22 03:58:46;;;;;;;3.00;1.00;;;18.10;79.10;;;;;;5052472;28;20465;-47
2021/06/22 04:01:13;;;;;;;1.50;1.40;;;18.00;79.00;;;;;;5072416;28;20454;-46
2021/06/22 04:03:40;;;;;;;1.23;1.10;;;18.00;78.60;;;;;;5060341;28;20486;-46
2021/06/22 04:06:07;;;;;;;1.20;1.10;;;18.00;78.80;;;;;;5056602;28;21033;-46
2021/06/22 04:08:35;;;;;;;1.30;1.20;;;18.00;79.00;;;;;;5054618;28;20453;-47
2021/06/22 04:11:03;;;;;;;1.77;1.50;;;18.00;78.60;;;;;;5058622;28;20443;-46
2021/06/22 04:13:30;;;;;;;1.37;1.20;;;18.00;78.30;;;;;;5058896;28;20555;-46
2021/06/22 04:15:57;;;;;;;1.73;1.37;;;18.00;78.40;;;;;;5055898;28;20518;-46
2021/06/22 04:18:24;;;;;;;1.60;1.50;;;18.10;79.10;;;;;;5056808;28;20483;-46
2021/06/22 04:20:51;;;;;;;1.50;1.40;;;18.10;79.10;;;;;;5060810;28;20453;-46
2021/06/22 04:23:17;;;;;;;2.50;1.87;;;18.10;79.20;;;;;;5058679;28;20488;-46
2021/06/22 04:25:44;;;;;;;1.93;1.77;;;18.10;79.20;;;;;;5059112;28;21021;-46
2021/06/22 04:28:11;;;;;;;3.77;1.70;;;18.10;79.30;;;;;;5057832;28;20530;-46
2021/06/22 04:30:38;;;;;;;2.20;1.97;;;18.10;79.80;;;;;;5055565;28;20450;-46
2021/06/22 04:33:06;;;;;;;2.37;2.17;;;18.10;80.00;;;;;;5060096;28;20442;-46
2021/06/22 04:35:33;;;;;;;1.97;1.80;;;18.10;79.60;;;;;;5059056;28;20438;-46
2021/06/22 04:38:02;;;;;;;2.70;1.77;;;18.10;79.00;;;;;;5089190;28;20526;-46
2021/06/22 04:40:30;;;;;;;2.10;1.90;;;18.20;78.90;;;;;;5062563;28;20461;-46
2021/06/22 04:42:57;;;;;;;3.07;2.00;;;18.20;79.10;;;;;;5060047;28;20472;-46
2021/06/22 04:45:24;;;;;;;2.20;1.47;;;18.20;78.80;;;;;;5057888;28;21009;-47
2021/06/22 04:47:53;;;;;;;1.57;1.30;;;18.20;78.60;;;;;;5061743;28;20525;-47
2021/06/22 04:50:21;;;;;;;2.03;1.87;;;18.20;77.90;;;;;;5055527;28;20545;-46
2021/06/22 04:52:48;;;;;;;1.40;1.30;;;18.30;77.40;;;;;;5058503;28;20496;-46
2021/06/22 04:55:16;;;;;;;2.10;1.90;;;18.30;77.50;;;;;;5059693;28;20845;-46
2021/06/22 04:57:45;;;;;;;4.83;2.20;;;18.20;77.70;;;;;;5059269;28;20958;-47
2021/06/22 05:00:13;;;;;;;3.00;1.60;;;18.20;77.70;;;;;;5056065;28;20463;-47
2021/06/22 05:02:41;;;;;;;1.93;1.60;;;18.20;77.80;;;;;;5064062;28;20831;-46
2021/06/22 05:05:10;;;;;;;2.20;1.20;;;18.30;77.90;;;;;;5058373;28;20461;-46
2021/06/22 05:07:37;;;;;;;4.03;1.80;;;18.30;77.80;;;;;;5059261;28;20493;-46
2021/06/22 05:10:05;;;;;;;1.40;1.30;;;18.30;76.80;;;;;;5060562;28;20454;-46
2021/06/22 05:12:32;;;;;;;1.57;1.47;;;18.30;76.50;;;;;;5057992;28;20446;-46
2021/06/22 05:14:59;;;;;;;2.10;1.17;;;18.30;76.50;;;;;;5058045;28;20454;-46
2021/06/22 05:17:26;;;;;;;4.30;1.60;;;18.30;76.50;;;;;;5056598;28;20466;-46
2021/06/22 05:19:53;;;;;;;4.33;1.13;;;18.40;76.40;;;;;;5056523;28;20886;-46
2021/06/22 05:22:21;;;;;;;1.20;1.10;;;18.40;75.40;;;;;;5059906;28;20452;-46
2021/06/22 05:24:51;;;;;;;1.23;0.90;;;18.40;74.20;;;;;;5058623;28;20459;-46
2021/06/22 05:27:17;;;;;;;3.30;1.40;;;18.40;74.60;;;;;;5060301;28;20482;-47
2021/06/22 05:29:44;;;;;;;2.10;1.20;;;18.40;74.90;;;;;;5060737;28;20453;-46
2021/06/22 05:32:16;;;;;;;1.83;1.10;;;18.40;74.70;;;;;;5058585;28;20495;-47
2021/06/22 05:34:43;;;;;;;1.20;1.10;;;18.30;75.10;;;;;;5060039;28;20454;-46
2021/06/22 05:37:10;;;;;;;1.97;1.20;;;18.40;75.30;;;;;;5060566;28;20826;-46
2021/06/22 05:39:36;;;;;;;28.63;6.03;;;18.40;75.50;;;;;;5060562;28;20487;-46
2021/06/22 05:42:04;;;;;;;4.63;1.70;;;18.40;75.50;;;;;;5057095;28;20474;-47
2021/06/22 05:44:30;;;;;;;9.23;1.50;;;18.50;74.70;;;;;;5059074;28;20462;-46
2021/06/22 05:46:57;;;;;;;7.67;1.77;;;18.50;74.30;;;;;;5063771;28;20473;-46
2021/06/22 05:49:24;;;;;;;8.40;1.90;;;18.50;74.80;;;;;;5061526;28;20569;-46
2021/06/22 05:51:52;;;;;;;4.23;1.63;;;18.60;74.20;;;;;;5060870;28;20462;-46
2021/06/22 05:54:19;;;;;;;1.40;1.00;;;18.60;74.50;;;;;;5064085;28;20442;-46
2021/06/22 05:56:46;;;;;;;1.33;1.00;;;18.60;74.90;;;;;;5056478;28;20843;-46
2021/06/22 05:59:13;;;;;;;1.87;0.93;;;18.60;74.30;;;;;;5059360;28;20469;-46
2021/06/22 06:01:39;;;;;;;2.70;1.10;;;18.60;74.70;;;;;;5057536;28;20468;-46
2021/06/22 06:04:06;;;;;;;9.43;2.00;;;18.60;75.00;;;;;;5058373;28;20541;-46
2021/06/22 06:06:35;;;;;;;1.20;1.10;;;18.60;75.00;;;;;;5054060;28;20498;-46
2021/06/22 06:09:02;;;;;;;8.87;2.23;;;18.70;74.20;;;;;;5053155;28;20497;-47
2021/06/22 06:11:29;;;;;;;6.10;1.50;;;18.60;74.60;;;;;;5055901;28;20453;-47
2021/06/22 06:13:56;;;;;;;43.47;6.70;;;18.60;74.80;;;;;;5059030;28;20446;-46
2021/06/22 06:16:23;;;;;;;5.43;2.10;;;18.70;74.50;;;;;;5058985;28;20943;-46
2021/06/22 06:18:50;;;;;;;0.87;0.87;;;18.70;74.80;;;;;;5062239;28;20462;-46
2021/06/22 06:21:17;;;;;;;1.20;1.00;;;18.80;74.30;;;;;;5061763;28;20821;-46
2021/06/22 06:23:47;;;;;;;1.63;1.07;;;18.80;73.90;;;;;;5057942;28;20489;-47
2021/06/22 06:26:16;;;;;;;4.60;1.93;;;18.80;74.10;;;;;;5059605;28;20486;-46
2021/06/22 06:28:50;;;;;;;1.90;0.83;;;18.80;73.70;;;;;;5057735;28;20457;-47
2021/06/22 06:31:18;;;;;;;8.90;1.63;;;18.80;74.10;;;;;;5060872;28;21396;-46
2021/06/22 06:33:45;;;;;;;2.50;1.30;;;18.90;73.80;;;;;;5057236;28;20439;-46
2021/06/22 06:36:11;;;;;;;3.67;2.03;;;18.90;74.00;;;;;;5058570;28;20445;-46
2021/06/22 06:38:38;;;;;;;2.43;2.10;;;18.90;73.90;;;;;;5059238;28;20467;-46
2021/06/22 06:41:05;;;;;;;6.63;2.87;;;18.90;73.90;;;;;;5058469;28;20455;-46
2021/06/22 06:43:32;;;;;;;3.03;1.60;;;19.00;73.60;;;;;;5058422;28;20454;-46
2021/06/22 06:45:59;;;;;;;5.47;1.40;;;19.10;73.00;;;;;;5052931;28;20457;-46
2021/06/22 06:48:26;;;;;;;2.60;1.30;;;19.10;72.70;;;;;;5088300;27;20938;-46
2021/06/22 06:50:53;;;;;;;1.60;0.73;;;19.20;72.00;;;;;;5059334;28;20453;-46
2021/06/22 06:53:20;;;;;;;3.50;0.90;;;19.20;72.30;;;;;;5071694;28;20455;-46
2021/06/22 06:55:47;;;;;;;3.67;0.93;;;19.20;72.60;;;;;;5055619;28;20962;-46
2021/06/22 06:58:14;;;;;;;3.43;0.70;;;19.20;72.70;;;;;;5055668;28;20831;-46
2021/06/22 07:00:42;;;;;;;0.60;0.50;;;19.30;72.20;;;;;;5058671;28;20457;-47
2021/06/22 07:03:09;;;;;;;0.50;0.40;;;19.30;71.70;;;;;;5057945;28;20450;-46
2021/06/22 07:05:36;;;;;;;0.93;0.67;;;19.30;71.20;;;;;;5058716;28;20459;-45
2021/06/22 07:08:04;;;;;;;2.20;0.60;;;19.40;71.00;;;;;;5055273;28;20528;-45
2021/06/22 07:10:33;;;;;;;0.80;0.70;;;19.40;71.60;;;;;;5059164;28;21221;-45
2021/06/22 07:13:03;;;;;;;1.10;0.63;;;19.50;71.60;;;;;;5056443;28;20443;-45
2021/06/22 07:15:31;;;;;;;1.63;0.63;;;19.50;71.40;;;;;;5083752;28;20453;-45
2021/06/22 07:17:58;;;;;;;2.77;0.80;;;19.50;71.30;;;;;;5057106;28;20470;-45
2021/06/22 07:20:25;;;;;;;0.80;0.67;;;19.60;70.20;;;;;;5055892;28;20950;-45
2021/06/22 07:22:53;;;;;;;0.90;0.70;;;19.70;69.30;;;;;;5063011;28;20860;-45
2021/06/22 07:25:20;;;;;;;4.33;1.27;;;19.70;69.00;;;;;;5057741;28;20462;-45
2021/06/22 07:27:48;;;;;;;0.90;0.80;;;19.70;68.60;;;;;;5056171;28;20841;-45
2021/06/22 07:30:16;;;;;;;4.63;1.10;;;19.80;68.90;;;;;;5056042;28;20484;-45
2021/06/22 07:32:43;;;;;;;3.43;1.00;;;19.80;69.00;;;;;;5058592;28;20509;-45
2021/06/22 07:35:11;;;;;;;0.93;0.80;;;19.90;68.70;;;;;;5057204;28;20586;-45
2021/06/22 07:37:40;;;;;;;1.50;0.53;;;20.00;68.40;;;;;;5060152;28;20478;-45
2021/06/22 07:40:09;;;;;;;0.90;0.90;;;20.20;68.20;;;;;;5056184;28;20466;-45
2021/06/22 07:42:36;;;;;;;0.90;0.70;;;20.40;67.90;;;;;;5062991;28;20463;-45
2021/06/22 07:45:04;;;;;;;1.20;1.00;;;20.50;67.50;;;;;;5058865;28;20454;-45
2021/06/22 07:47:31;;;;;;;1.67;0.80;;;20.60;67.20;;;;;;5057320;28;20995;-45
2021/06/22 07:49:58;;;;;;;1.03;0.70;;;20.80;66.40;;;;;;5053636;28;20474;-45
2021/06/22 07:52:25;;;;;;;1.50;0.70;;;20.90;65.40;;;;;;5056286;28;20465;-45
2021/06/22 07:54:52;;;;;;;3.23;0.80;;;20.90;65.60;;;;;;5056714;28;20497;-46
2021/06/22 07:57:19;;;;;;;1.23;0.50;;;21.00;66.20;;;;;;5056867;28;20940;-45
2021/06/22 07:59:46;;;;;;;1.43;1.00;;;21.10;66.40;;;;;;5057112;28;20831;-45
2021/06/22 08:02:12;;;;;;;0.80;0.60;;;21.20;64.70;;;;;;5060763;28;20454;-45
2021/06/22 08:04:39;;;;;;;1.20;0.80;;;21.20;64.80;;;;;;5058491;28;20628;-46
2021/06/22 08:07:06;;;;;;;0.70;0.70;;;21.30;63.70;;;;;;5054413;28;20840;-45
2021/06/22 08:09:33;;;;;;;1.37;0.60;;;21.40;63.30;;;;;;5056355;28;20460;-47
2021/06/22 08:12:01;;;;;;;0.60;0.60;;;21.40;63.50;;;;;;5052370;28;20870;-46
2021/06/22 08:14:28;;;;;;;1.20;0.67;;;21.40;64.00;;;;;;5058228;28;20488;-46
2021/06/22 08:16:55;;;;;;;1.43;0.70;;;21.30;63.90;;;;;;5057752;28;20548;-48
2021/06/22 08:19:22;;;;;;;0.93;0.80;;;21.20;64.30;;;;;;5054657;28;20522;-46
2021/06/22 08:21:48;;;;;;;0.70;0.70;;;21.20;64.70;;;;;;5059224;28;21054;-46
2021/06/22 08:24:15;;;;;;;1.37;0.60;;;21.10;64.30;;;;;;5054364;28;20470;-46
2021/06/22 08:26:42;;;;;;;1.80;0.90;;;21.10;64.60;;;;;;5052980;28;20834;-46
2021/06/22 08:29:08;;;;;;;2.67;0.97;;;21.00;64.70;;;;;;5054379;28;20447;-46
2021/06/22 08:31:35;;;;;;;7.00;0.93;;;21.00;64.20;;;;;;5056420;28;20454;-46
2021/06/22 08:34:02;;;;;;;2.37;0.93;;;20.90;63.70;;;;;;5055168;28;20449;-46
2021/06/22 08:36:29;;;;;;;1.77;1.03;;;20.80;64.10;;;;;;5059039;28;20468;-46
2021/06/22 08:38:57;;;;;;;1.60;1.07;;;20.80;64.80;;;;;;5055423;28;20453;-46
2021/06/22 08:41:26;;;;;;;0.93;0.93;;;20.70;65.00;;;;;;5087995;28;20446;-46
2021/06/22 08:43:55;;;;;;;2.87;1.00;;;20.80;64.30;;;;;;5057823;28;21041;-46
2021/06/22 08:46:22;;;;;;;2.00;0.77;;;20.70;64.50;;;;;;5058789;28;20519;-46
2021/06/22 08:48:50;;;;;;;1.80;0.67;;;20.60;64.90;;;;;;5059675;28;20486;-46
2021/06/22 08:51:36;;;;;;;1.10;0.90;;;20.50;65.00;;;;;;5060207;28;20446;-46
2021/06/22 08:54:08;;;;;;;4.10;1.00;;;20.50;65.30;;;;;;5074023;28;20481;-46
2021/06/22 08:56:35;;;;;;;1.50;1.20;;;20.50;65.80;;;;;;5060223;28;20531;-46
2021/06/22 08:59:02;;;;;;;4.03;1.30;;;20.40;65.90;;;;;;5061857;28;20932;-46
2021/06/22 09:01:29;;;;;;;2.10;1.00;;;20.30;65.80;;;;;;5059368;28;20817;-46
2021/06/22 09:03:56;;;;;;;0.80;0.77;;;20.30;66.10;;;;;;5062825;28;20460;-46
2021/06/22 09:06:27;;;;;;;3.93;1.17;;;20.30;66.30;;;;;;5056537;28;20455;-46
2021/06/22 09:08:55;;;;;;;1.53;1.13;;;20.30;66.50;;;;;;5059999;28;20569;-45
2021/06/22 09:11:22;;;;;;;1.90;0.90;;;20.20;66.90;;;;;;5059195;28;20489;-46
2021/06/22 09:14:02;;;;;;;1.00;0.87;;;20.20;67.00;;;;;;5057666;28;20459;-47
2021/06/22 09:16:30;;;;;;;1.03;1.00;;;20.10;67.20;;;;;;5071254;28;20974;-46
2021/06/22 09:19:10;;;;;;;1.93;0.90;;;20.10;67.30;;;;;;5057967;28;20486;-46
2021/06/22 09:21:45;;;;;;;1.50;1.20;;;20.10;67.40;;;;;;5061712;28;20897;-46
2021/06/22 09:24:17;;;;;;;2.30;1.00;;;20.10;67.50;;;;;;5060858;28;20457;-46
2021/06/22 09:26:48;;;;;;;1.77;1.00;;;20.00;67.60;;;;;;5058495;28;20537;-46
2021/06/22 09:29:20;;;;;;;1.30;0.83;;;20.00;67.40;;;;;;5059712;28;20838;-46
2021/06/22 09:31:56;;;;;;;3.13;0.93;;;20.00;67.20;;;;;;5059727;28;20460;-46
2021/06/22 09:34:25;;;;;;;2.00;1.27;;;20.00;67.30;;;;;;5060271;28;20458;-46
2021/06/22 09:36:57;;;;;;;5.00;1.40;;;20.00;67.80;;;;;;5059592;28;20451;-46
2021/06/22 09:39:26;;;;;;;5.63;1.50;;;20.00;67.50;;;;;;5074159;28;20815;-46
2021/06/22 09:41:55;;;;;;;6.50;1.30;;;19.90;67.70;;;;;;5059439;28;20498;-47
2021/06/22 09:44:24;;;;;;;3.20;1.10;;;19.90;67.60;;;;;;5074098;28;20452;-46
2021/06/22 09:46:53;;;;;;;3.50;0.93;;;19.90;67.40;;;;;;5058604;28;20461;-46
2021/06/22 09:49:21;;;;;;;1.40;0.80;;;19.90;67.60;;;;;;5060316;28;20469;-46
2021/06/22 09:52:14;;;;;;;5.77;1.57;;;19.90;67.70;;;;;;5058010;28;20445;-47
2021/06/22 09:54:47;;;;;;;4.63;1.43;;;19.90;67.60;;;;;;5059992;28;20435;-47
2021/06/22 09:57:16;;;;;;;5.87;1.80;;;19.80;68.00;;;;;;5063192;28;20458;-46
2021/06/22 09:59:48;;;;;;;3.80;1.43;;;19.90;68.00;;;;;;5058617;28;20454;-47
2021/06/22 10:02:17;;;;;;;1.40;1.00;;;19.80;68.40;;;;;;5061181;28;20470;-46
2021/06/22 10:04:46;;;;;;;2.77;1.03;;;19.90;68.40;;;;;;5060652;28;20468;-47
2021/06/22 10:07:15;;;;;;;2.87;0.93;;;19.90;68.50;;;;;;5058082;28;20577;-46
2021/06/22 10:09:42;;;;;;;4.20;1.10;;;19.90;68.00;;;;;;5056223;28;20734;-46
2021/06/22 10:12:09;;;;;;;1.10;1.00;;;19.90;68.20;;;;;;5058775;28;20459;-46
2021/06/22 10:14:42;;;;;;;1.20;1.10;;;19.90;68.30;;;;;;5058803;28;20466;-46
2021/06/22 10:17:14;;;;;;;1.20;1.10;;;19.90;68.90;;;;;;5058630;28;20454;-46
2021/06/22 10:19:45;;;;;;;1.20;1.10;;;19.90;69.10;;;;;;5059472;28;20834;-47
2021/06/22 10:22:14;;;;;;;2.30;1.20;;;19.90;70.20;;;;;;5054778;28;21049;-46
2021/06/22 10:24:43;;;;;;;1.73;1.00;;;19.80;71.10;;;;;;5056758;28;20462;-46
2021/06/22 10:27:12;;;;;;;2.00;1.30;;;19.80;72.60;;;;;;5060349;28;20786;-47
2021/06/22 10:29:39;;;;;;;2.10;1.63;;;19.80;72.80;;;;;;5056684;28;20443;-46
2021/06/22 10:32:06;;;;;;;2.30;1.27;;;19.80;73.00;;;;;;5057494;28;20458;-46
2021/06/22 10:34:33;;;;;;;1.60;1.47;;;19.80;74.10;;;;;;5059024;28;20454;-47
2021/06/22 10:37:18;;;;;;;3.93;2.17;;;19.90;74.60;;;;;;5060448;28;20920;-46
2021/06/22 10:39:51;;;;;;;2.23;2.03;;;19.90;74.90;;;;;;5061090;28;20586;-46
2021/06/22 10:42:20;;;;;;;2.03;1.67;;;19.90;74.30;;;;;;5060608;28;20455;-46
2021/06/22 10:44:48;;;;;;;1.90;1.63;;;19.90;74.40;;;;;;5059181;28;20453;-46
2021/06/22 10:47:30;;;;;;;3.57;2.00;;;19.90;74.80;;;;;;5054616;28;20457;-46
2021/06/22 10:50:18;;;;;;;3.43;2.13;;;19.90;75.20;;;;;;5058300;28;20451;-46
2021/06/22 10:52:46;;;;;;;2.83;2.10;;;19.90;75.30;;;;;;5052273;28;21046;-47
2021/06/22 10:55:18;;;;;;;2.20;1.83;;;20.00;74.40;;;;;;5055459;28;20853;-47
2021/06/22 10:58:03;;;;;;;5.07;2.10;;;20.00;74.20;;;;;;5063321;28;20473;-47
2021/06/22 11:00:56;;;;;;;2.30;2.00;;;20.00;74.90;;;;;;5056216;28;20461;-46
2021/06/22 11:03:32;;;;;;;1.50;1.40;;;20.10;75.90;;;;;;5070994;28;20454;-46
2021/06/22 11:06:02;;;;;;;3.97;1.63;;;20.20;75.40;;;;;;5056428;28;20475;-46
2021/06/22 11:08:31;;;;;;;5.23;2.27;;;20.30;75.10;;;;;;5060106;28;20541;-47
2021/06/22 11:10:58;;;;;;;2.27;1.80;;;20.30;74.70;;;;;;5054927;28;20509;-45
2021/06/22 11:13:33;;;;;;;2.07;1.87;;;20.40;74.50;;;;;;5055810;28;20481;-46
2021/06/22 11:16:05;;;;;;;2.57;1.60;;;20.50;73.90;;;;;;5087560;28;20476;-45
2021/06/22 11:18:53;;;;;;;2.50;1.60;;;20.50;73.50;;;;;;5053713;28;22549;-45
2021/06/22 11:21:42;;;;;;;2.03;1.93;;;20.50;73.40;;;;;;5059387;28;20537;-46
2021/06/22 11:24:17;;;;;;;2.10;1.50;;;20.60;73.30;;;;;;5058246;28;20466;-46
2021/06/22 11:26:44;;;;;;;1.80;1.70;;;20.50;72.30;;;;;;5056934;28;20462;-46
2021/06/22 11:29:25;;;;;;;5.57;1.57;;;20.50;72.60;;;;;;5056901;28;20501;-46
2021/06/22 11:31:51;;;;;;;4.30;1.87;;;20.40;73.40;;;;;;5056322;28;20466;-46
2021/06/22 11:34:21;;;;;;;1.80;1.70;;;20.40;73.00;;;;;;5058620;28;20448;-47
2021/06/22 11:36:53;;;;;;;2.33;1.60;;;20.30;73.50;;;;;;5053772;28;20458;-46
2021/06/22 11:39:26;;;;;;;6.10;2.03;;;20.20;74.00;;;;;;5058485;28;20469;-47
2021/06/22 11:42:09;;;;;;;3.07;1.57;;;20.10;74.60;;;;;;5057902;28;20619;-46
2021/06/22 11:44:41;;;;;;;3.80;2.03;;;20.10;75.20;;;;;;5070282;28;21018;-46
2021/06/22 11:47:12;;;;;;;2.20;2.00;;;20.10;75.30;;;;;;5056789;28;20839;-47
2021/06/22 11:49:42;;;;;;;2.20;1.90;;;20.10;75.30;;;;;;5056156;28;20481;-46
2021/06/22 11:52:10;;;;;;;2.60;1.90;;;20.10;75.20;;;;;;5059568;28;20456;-46
2021/06/22 11:54:46;;;;;;;2.80;2.50;;;20.00;75.20;;;;;;5055373;28;20498;-46
2021/06/22 11:57:31;;;;;;;2.70;2.00;;;20.00;75.00;;;;;;5054410;28;20450;-46
2021/06/22 12:00:06;;;;;;;3.53;2.10;;;20.00;75.80;;;;;;5052310;28;20919;-48
2021/06/22 12:02:32;;;;;;;2.77;1.90;;;20.00;75.80;;;;;;5059584;28;20452;-47
2021/06/22 12:05:13;;;;;;;2.97;1.80;;;20.00;75.50;;;;;;5058081;28;20450;-47
2021/06/22 12:08:10;;;;;;;2.00;1.70;;;20.00;76.50;;;;;;5061539;28;21212;-46
2021/06/22 12:10:39;;;;;;;3.60;2.30;;;19.90;76.50;;;;;;5049648;28;20814;-46
2021/06/22 12:13:08;;;;;;;2.47;1.60;;;19.80;77.10;;;;;;5055735;28;20509;-47
2021/06/22 12:15:40;;;;;;;5.33;2.30;;;19.80;77.50;;;;;;5058834;28;20495;-47
2021/06/22 12:18:07;;;;;;;3.20;2.83;;;19.80;78.40;;;;;;5057570;28;20859;-47
2021/06/22 12:20:38;;;;;;;3.43;2.73;;;19.80;78.80;;;;;;5061896;28;20450;-47
2021/06/22 12:23:13;;;;;;;2.33;2.13;;;19.80;79.10;;;;;;5060139;28;20461;-47
2021/06/22 12:25:42;;;;;;;2.63;2.43;;;19.80;79.10;;;;;;5058445;28;20455;-47
2021/06/22 12:28:09;;;;;;;3.20;2.50;;;19.80;79.40;;;;;;5064543;28;20491;-48
2021/06/22 12:30:41;;;;;;;2.60;2.40;;;19.80;79.10;;;;;;5061863;28;20949;-47
2021/06/22 12:33:09;;;;;;;2.83;2.40;;;19.80;79.60;;;;;;5089418;28;20456;-47
2021/06/22 12:35:36;;;;;;;2.40;2.20;;;19.80;79.70;;;;;;5063341;28;20458;-47
2021/06/22 12:38:14;;;;;;;3.80;2.60;;;19.70;79.70;;;;;;5063162;28;20460;-47
2021/06/22 12:40:45;;;;;;;4.23;2.50;;;19.70;79.60;;;;;;5061027;28;20453;-47
2021/06/22 12:43:13;;;;;;;5.40;2.80;;;19.70;79.60;;;;;;5065687;28;20451;-47
2021/06/22 12:45:40;;;;;;;4.20;2.87;;;19.60;80.00;;;;;;5059660;28;20449;-47
2021/06/22 12:48:08;;;;;;;3.23;2.43;;;19.60;80.50;;;;;;5058404;28;21457;-47
2021/06/22 12:50:37;;;;;;;3.60;3.10;;;19.60;81.20;;;;;;5059621;28;20862;-47
2021/06/22 12:53:04;;;;;;;6.87;3.00;;;19.60;80.90;;;;;;5071477;28;20454;-47
2021/06/22 12:55:36;;;;;;;3.10;2.80;;;19.60;81.30;;;;;;5062760;28;20473;-47
2021/06/22 12:58:04;;;;;;;6.13;2.80;;;19.60;81.10;;;;;;5060615;28;20468;-47
2021/06/22 13:00:36;;;;;;;2.70;2.10;;;19.70;80.70;;;;;;5062790;28;20962;-47